Terminal Aerodrome Forecast
Issued by NWS

Home | Current Version | Previous Version | Text Only | Print | Product List | Glossary On
Versions: 1 2 3 4 5 6 7 8 9 10 11 12 13 14 15 16 17 18 19 20 21 22 23 24
000
FTUS45 KPSR 282320
TAFSDL
TAF
KSDL 282320Z 2900/2924 28016G27KT P6SM FEW120 FEW250
     FM290400 35010KT P6SM SKC
     FM292100 25010KT P6SM SKC=

USA.gov is the U.S. government's official web portal to all federal, state and local government web resources and services.